sensor_id;sensor_type;location;lat;lon;timestamp;pressure;altitude;pressure_sealevel;temperature;humidity
63654;BME280;49809;47.418;19.080;2022-12-07T00:03:19;100481.37;;;-0.21;100.00
63654;BME280;49809;47.418;19.080;2022-12-07T00:07:03;100472.19;;;-0.31;100.00
63654;BME280;49809;47.418;19.080;2022-12-07T00:10:36;100472.00;;;-0.45;100.00
63654;BME280;49809;47.418;19.080;2022-12-07T00:18:06;100464.97;;;-0.59;100.00
63654;BME280;49809;47.418;19.080;2022-12-07T00:25:11;100459.22;;;-0.77;100.00
63654;BME280;49809;47.418;19.080;2022-12-07T00:32:26;100453.87;;;-0.98;100.00
63654;BME280;49809;47.418;19.080;2022-12-07T00:36:14;100445.38;;;-0.92;100.00
63654;BME280;49809;47.418;19.080;2022-12-07T00:40:03;100444.22;;;-1.12;100.00
63654;BME280;49809;47.418;19.080;2022-12-07T00:43:52;100444.91;;;-1.18;100.00
63654;BME280;49809;47.418;19.080;2022-12-07T00:47:16;100438.75;;;-1.25;100.00
63654;BME280;49809;47.418;19.080;2022-12-07T00:54:47;100438.66;;;-1.32;100.00
63654;BME280;49809;47.418;19.080;2022-12-07T00:58:24;100429.25;;;-1.33;100.00
63654;BME280;49809;47.418;19.080;2022-12-07T01:02:01;100436.87;;;-1.32;100.00
63654;BME280;49809;47.418;19.080;2022-12-07T01:06:01;100443.84;;;-1.32;100.00
63654;BME280;49809;47.418;19.080;2022-12-07T01:09:32;100448.00;;;-1.23;100.00
63654;BME280;49809;47.418;19.080;2022-12-07T01:13:17;100444.31;;;-1.28;100.00
63654;BME280;49809;47.418;19.080;2022-12-07T01:17:18;100450.66;;;-1.31;100.00
63654;BME280;49809;47.418;19.080;2022-12-07T01:21:07;100445.06;;;-1.20;100.00
63654;BME280;49809;47.418;19.080;2022-12-07T01:24:32;100433.59;;;-1.03;100.00
63654;BME280;49809;47.418;19.080;2022-12-07T01:28:16;100425.91;;;-0.96;100.00
63654;BME280;49809;47.418;19.080;2022-12-07T01:31:48;100427.94;;;-0.83;100.00
63654;BME280;49809;47.418;19.080;2022-12-07T01:35:28;100422.97;;;-0.93;100.00
63654;BME280;49809;47.418;19.080;2022-12-07T01:39:06;100428.88;;;-0.99;100.00
63654;BME280;49809;47.418;19.080;2022-12-07T01:42:45;100429.22;;;-1.02;100.00
63654;BME280;49809;47.418;19.080;2022-12-07T01:46:20;100430.88;;;-1.09;100.00
63654;BME280;49809;47.418;19.080;2022-12-07T01:49:58;100433.03;;;-1.13;100.00
63654;BME280;49809;47.418;19.080;2022-12-07T01:53:25;100426.66;;;-1.10;100.00
63654;BME280;49809;47.418;19.080;2022-12-07T01:57:02;100419.84;;;-1.11;100.00
63654;BME280;49809;47.418;19.080;2022-12-07T02:00:49;100416.25;;;-1.10;100.00
63654;BME280;49809;47.418;19.080;2022-12-07T02:04:35;100428.72;;;-1.06;100.00
63654;BME280;49809;47.418;19.080;2022-12-07T02:08:07;100425.91;;;-0.96;100.00
63654;BME280;49809;47.418;19.080;2022-12-07T02:11:37;100418.84;;;-0.65;100.00
63654;BME280;49809;47.418;19.080;2022-12-07T02:15:14;100414.56;;;-0.58;100.00
63654;BME280;49809;47.418;19.080;2022-12-07T02:19:18;100419.13;;;-0.60;100.00
63654;BME280;49809;47.418;19.080;2022-12-07T02:23:32;100425.22;;;-0.53;100.00
63654;BME280;49809;47.418;19.080;2022-12-07T02:35:55;100402.16;;;-0.18;100.00
63654;BME280;49809;47.418;19.080;2022-12-07T02:43:24;100411.84;;;-0.12;100.00
63654;BME280;49809;47.418;19.080;2022-12-07T02:50:37;100423.22;;;0.02;100.00
63654;BME280;49809;47.418;19.080;2022-12-07T02:54:31;100417.03;;;0.17;100.00
63654;BME280;49809;47.418;19.080;2022-12-07T03:02:11;100406.87;;;0.37;100.00
63654;BME280;49809;47.418;19.080;2022-12-07T03:06:31;100411.62;;;0.48;100.00
63654;BME280;49809;47.418;19.080;2022-12-07T03:11:03;100410.91;;;0.39;100.00
63654;BME280;49809;47.418;19.080;2022-12-07T03:15:15;100402.91;;;0.41;100.00
63654;BME280;49809;47.418;19.080;2022-12-07T03:19:23;100395.91;;;0.41;100.00
63654;BME280;49809;47.418;19.080;2022-12-07T03:23:31;100395.81;;;0.35;100.00
63654;BME280;49809;47.418;19.080;2022-12-07T03:27:14;100395.75;;;0.43;100.00
63654;BME280;49809;47.418;19.080;2022-12-07T03:31:46;100388.09;;;0.41;100.00
63654;BME280;49809;47.418;19.080;2022-12-07T03:35:22;100389.72;;;0.42;100.00
63654;BME280;49809;47.418;19.080;2022-12-07T03:42:53;100392.00;;;0.67;100.00
63654;BME280;49809;47.418;19.080;2022-12-07T03:57:24;100398.38;;;0.64;100.00
63654;BME280;49809;47.418;19.080;2022-12-07T04:01:07;100389.19;;;0.68;100.00
63654;BME280;49809;47.418;19.080;2022-12-07T04:04:43;100396.75;;;0.63;100.00
63654;BME280;49809;47.418;19.080;2022-12-07T04:08:22;100401.41;;;0.68;100.00
63654;BME280;49809;47.418;19.080;2022-12-07T04:12:04;100406.87;;;0.73;100.00
63654;BME280;49809;47.418;19.080;2022-12-07T04:19:25;100395.34;;;0.82;100.00
63654;BME280;49809;47.418;19.080;2022-12-07T04:23:27;100400.72;;;1.02;100.00
63654;BME280;49809;47.418;19.080;2022-12-07T04:27:00;100407.03;;;0.86;100.00
63654;BME280;49809;47.418;19.080;2022-12-07T04:30:35;100400.56;;;0.82;100.00
63654;BME280;49809;47.418;19.080;2022-12-07T04:34:16;100410.37;;;1.01;100.00
63654;BME280;49809;47.418;19.080;2022-12-07T04:37:52;100414.94;;;0.78;100.00
63654;BME280;49809;47.418;19.080;2022-12-07T04:41:52;100414.06;;;0.92;100.00
63654;BME280;49809;47.418;19.080;2022-12-07T04:45:34;100411.97;;;1.02;100.00
63654;BME280;49809;47.418;19.080;2022-12-07T04:49:31;100408.34;;;0.97;100.00
63654;BME280;49809;47.418;19.080;2022-12-07T04:53:21;100410.25;;;1.09;100.00
63654;BME280;49809;47.418;19.080;2022-12-07T04:57:32;100407.53;;;0.96;100.00
63654;BME280;49809;47.418;19.080;2022-12-07T05:01:06;100410.22;;;0.88;100.00
63654;BME280;49809;47.418;19.080;2022-12-07T05:04:45;100409.81;;;0.84;100.00
63654;BME280;49809;47.418;19.080;2022-12-07T05:08:20;100416.87;;;0.91;100.00
63654;BME280;49809;47.418;19.080;2022-12-07T05:16:14;100417.94;;;0.96;100.00
63654;BME280;49809;47.418;19.080;2022-12-07T05:19:50;100418.12;;;0.95;100.00
63654;BME280;49809;47.418;19.080;2022-12-07T05:23:28;100414.31;;;0.97;100.00
63654;BME280;49809;47.418;19.080;2022-12-07T05:30:47;100422.59;;;1.01;100.00
63654;BME280;49809;47.418;19.080;2022-12-07T05:38:24;100418.25;;;1.08;100.00
63654;BME280;49809;47.418;19.080;2022-12-07T05:42:03;100416.44;;;1.08;100.00
63654;BME280;49809;47.418;19.080;2022-12-07T05:45:44;100409.69;;;1.14;100.00
63654;BME280;49809;47.418;19.080;2022-12-07T05:49:10;100408.25;;;1.33;100.00
63654;BME280;49809;47.418;19.080;2022-12-07T05:52:55;100410.28;;;1.37;100.00
63654;BME280;49809;47.418;19.080;2022-12-07T05:56:26;100405.81;;;1.31;100.00
63654;BME280;49809;47.418;19.080;2022-12-07T06:03:45;100412.97;;;1.22;100.00
63654;BME280;49809;47.418;19.080;2022-12-07T06:07:27;100407.41;;;1.25;100.00
63654;BME280;49809;47.418;19.080;2022-12-07T06:11:26;100397.31;;;1.22;100.00
63654;BME280;49809;47.418;19.080;2022-12-07T06:19:22;100402.03;;;1.12;100.00
63654;BME280;49809;47.418;19.080;2022-12-07T06:22:49;100403.66;;;1.13;100.00
63654;BME280;49809;47.418;19.080;2022-12-07T06:26:17;100405.66;;;1.11;100.00
63654;BME280;49809;47.418;19.080;2022-12-07T06:29:42;100408.88;;;1.13;100.00
63654;BME280;49809;47.418;19.080;2022-12-07T06:37:20;100409.69;;;1.14;100.00
63654;BME280;49809;47.418;19.080;2022-12-07T06:41:00;100405.78;;;1.24;100.00
63654;BME280;49809;47.418;19.080;2022-12-07T06:44:36;100407.75;;;1.22;100.00
63654;BME280;49809;47.418;19.080;2022-12-07T06:48:30;100415.81;;;1.27;100.00
63654;BME280;49809;47.418;19.080;2022-12-07T06:52:04;100412.38;;;1.20;100.00
63654;BME280;49809;47.418;19.080;2022-12-07T06:55:31;100420.13;;;1.14;100.00
63654;BME280;49809;47.418;19.080;2022-12-07T06:59:01;100421.78;;;1.21;100.00
63654;BME280;49809;47.418;19.080;2022-12-07T07:06:13;100431.84;;;1.24;100.00
63654;BME280;49809;47.418;19.080;2022-12-07T07:09:50;100434.97;;;1.41;100.00
63654;BME280;49809;47.418;19.080;2022-12-07T07:20:55;100432.78;;;1.66;100.00
63654;BME280;49809;47.418;19.080;2022-12-07T07:24:29;100417.75;;;1.68;100.00
63654;BME280;49809;47.418;19.080;2022-12-07T07:28:00;100433.72;;;1.58;100.00
63654;BME280;49809;47.418;19.080;2022-12-07T07:54:32;100440.87;;;2.05;100.00
63654;BME280;49809;47.418;19.080;2022-12-07T08:07:48;100442.53;;;2.13;100.00
63654;BME280;49809;47.418;19.080;2022-12-07T08:30:50;100439.34;;;2.65;100.00
63654;BME280;49809;47.418;19.080;2022-12-07T08:34:28;100432.75;;;2.76;100.00
63654;BME280;49809;47.418;19.080;2022-12-07T08:45:47;100448.66;;;2.87;100.00
63654;BME280;49809;47.418;19.080;2022-12-07T08:50:03;100452.47;;;2.91;100.00
63654;BME280;49809;47.418;19.080;2022-12-07T08:57:27;100448.31;;;3.17;100.00
63654;BME280;49809;47.418;19.080;2022-12-07T09:01:05;100445.31;;;3.39;100.00
63654;BME280;49809;47.418;19.080;2022-12-07T09:05:18;100452.53;;;3.44;100.00
63654;BME280;49809;47.418;19.080;2022-12-07T09:09:09;100459.22;;;3.66;100.00
63654;BME280;49809;47.418;19.080;2022-12-07T09:20:05;100442.81;;;4.17;100.00
63654;BME280;49809;47.418;19.080;2022-12-07T09:23:57;100441.59;;;4.13;100.00
63654;BME280;49809;47.418;19.080;2022-12-07T09:27:46;100442.41;;;4.13;100.00
63654;BME280;49809;47.418;19.080;2022-12-07T09:35:13;100436.56;;;4.24;100.00
63654;BME280;49809;47.418;19.080;2022-12-07T09:38:54;100437.97;;;4.20;100.00
63654;BME280;49809;47.418;19.080;2022-12-07T09:42:55;100430.25;;;4.32;100.00
63654;BME280;49809;47.418;19.080;2022-12-07T09:50:21;100424.94;;;4.52;100.00
63654;BME280;49809;47.418;19.080;2022-12-07T09:54:00;100422.25;;;4.20;100.00
63654;BME280;49809;47.418;19.080;2022-12-07T09:58:16;100418.91;;;4.51;100.00
63654;BME280;49809;47.418;19.080;2022-12-07T10:05:53;100417.50;;;4.87;100.00
63654;BME280;49809;47.418;19.080;2022-12-07T10:09:53;100413.03;;;4.94;100.00
63654;BME280;49809;47.418;19.080;2022-12-07T10:13:37;100406.91;;;5.06;100.00
63654;BME280;49809;47.418;19.080;2022-12-07T10:17:40;100399.84;;;5.07;100.00
63654;BME280;49809;47.418;19.080;2022-12-07T10:21:34;100400.22;;;4.79;100.00
63654;BME280;49809;47.418;19.080;2022-12-07T10:40:38;100385.47;;;5.09;100.00
63654;BME280;49809;47.418;19.080;2022-12-07T10:45:20;100381.38;;;5.20;100.00
63654;BME280;49809;47.418;19.080;2022-12-07T11:43:39;100348.66;;;5.65;92.31
63654;BME280;49809;47.418;19.080;2022-12-07T11:47:36;100343.59;;;5.89;91.15
63654;BME280;49809;47.418;19.080;2022-12-07T11:59:27;100363.97;;;5.68;90.00
63654;BME280;49809;47.418;19.080;2022-12-07T12:02:47;100357.69;;;5.69;90.09
63654;BME280;49809;47.418;19.080;2022-12-07T12:06:40;100365.00;;;5.86;90.15
63654;BME280;49809;47.418;19.080;2022-12-07T13:04:35;100300.22;;;5.98;81.73
63654;BME280;49809;47.418;19.080;2022-12-07T13:08:59;100304.47;;;5.81;82.39
63654;BME280;49809;47.418;19.080;2022-12-07T13:12:39;100311.87;;;5.84;83.12
63654;BME280;49809;47.418;19.080;2022-12-07T13:19:56;100311.81;;;5.72;83.88
63654;BME280;49809;47.418;19.080;2022-12-07T13:27:37;100312.03;;;5.71;82.62
63654;BME280;49809;47.418;19.080;2022-12-07T13:35:26;100311.25;;;5.70;80.71
63654;BME280;49809;47.418;19.080;2022-12-07T13:39:28;100316.53;;;5.63;80.54
63654;BME280;49809;47.418;19.080;2022-12-07T13:42:38;100317.25;;;5.52;78.83
63654;BME280;49809;47.418;19.080;2022-12-07T13:46:29;100322.50;;;5.52;79.10
63654;BME280;49809;47.418;19.080;2022-12-07T13:50:28;100323.25;;;5.59;79.21
63654;BME280;49809;47.418;19.080;2022-12-07T13:54:08;100322.28;;;5.36;78.52
63654;BME280;49809;47.418;19.080;2022-12-07T13:57:49;100329.06;;;5.43;78.94
63654;BME280;49809;47.418;19.080;2022-12-07T14:01:31;100326.72;;;5.35;78.56
63654;BME280;49809;47.418;19.080;2022-12-07T14:05:29;100335.97;;;5.38;79.32
63654;BME280;49809;47.418;19.080;2022-12-07T14:09:17;100327.53;;;5.36;77.64
63654;BME280;49809;47.418;19.080;2022-12-07T14:12:52;100329.47;;;5.22;79.99
63654;BME280;49809;47.418;19.080;2022-12-07T14:16:32;100343.62;;;5.21;80.17
63654;BME280;49809;47.418;19.080;2022-12-07T14:20:27;100337.03;;;5.12;81.29
63654;BME280;49809;47.418;19.080;2022-12-07T14:24:20;100334.56;;;5.17;80.09
63654;BME280;49809;47.418;19.080;2022-12-07T14:28:00;100339.97;;;4.97;81.65
63654;BME280;49809;47.418;19.080;2022-12-07T14:35:41;100338.56;;;4.95;82.51
63654;BME280;49809;47.418;19.080;2022-12-07T14:39:22;100342.09;;;4.82;83.96
63654;BME280;49809;47.418;19.080;2022-12-07T14:42:48;100338.03;;;4.86;84.14
63654;BME280;49809;47.418;19.080;2022-12-07T14:46:30;100338.53;;;4.70;85.39
63654;BME280;49809;47.418;19.080;2022-12-07T14:50:02;100341.78;;;4.65;85.52
63654;BME280;49809;47.418;19.080;2022-12-07T14:53:36;100346.28;;;4.58;86.81
63654;BME280;49809;47.418;19.080;2022-12-07T14:57:10;100346.31;;;4.52;86.72
63654;BME280;49809;47.418;19.080;2022-12-07T15:01:00;100350.81;;;4.45;87.55
63654;BME280;49809;47.418;19.080;2022-12-07T15:04:51;100356.06;;;4.38;88.67
63654;BME280;49809;47.418;19.080;2022-12-07T15:08:14;100351.88;;;4.30;88.79
63654;BME280;49809;47.418;19.080;2022-12-07T15:11:22;100350.91;;;4.25;89.46
63654;BME280;49809;47.418;19.080;2022-12-07T15:14:59;100363.81;;;4.20;89.77
63654;BME280;49809;47.418;19.080;2022-12-07T15:18:05;100360.81;;;4.10;91.14
63654;BME280;49809;47.418;19.080;2022-12-07T15:21:28;100373.13;;;4.03;91.45
63654;BME280;49809;47.418;19.080;2022-12-07T15:24:48;100367.50;;;3.99;91.24
63654;BME280;49809;47.418;19.080;2022-12-07T15:28:03;100373.56;;;3.93;91.83
63654;BME280;49809;47.418;19.080;2022-12-07T15:31:50;100370.38;;;3.84;92.36
63654;BME280;49809;47.418;19.080;2022-12-07T15:35:07;100369.41;;;3.72;92.59
63654;BME280;49809;47.418;19.080;2022-12-07T15:38:32;100368.59;;;3.65;92.91
63654;BME280;49809;47.418;19.080;2022-12-07T15:41:59;100377.25;;;3.59;93.70
63654;BME280;49809;47.418;19.080;2022-12-07T15:45:11;100380.91;;;3.52;94.02
63654;BME280;49809;47.418;19.080;2022-12-07T15:48:45;100382.13;;;3.36;95.08
63654;BME280;49809;47.418;19.080;2022-12-07T15:51:54;100387.94;;;3.25;95.50
63654;BME280;49809;47.418;19.080;2022-12-07T15:55:06;100386.13;;;3.05;96.77
63654;BME280;49809;47.418;19.080;2022-12-07T15:58:34;100395.78;;;2.85;97.90
63654;BME280;49809;47.418;19.080;2022-12-07T16:01:37;100392.53;;;2.83;98.42
63654;BME280;49809;47.418;19.080;2022-12-07T16:04:50;100386.28;;;2.78;98.76
63654;BME280;49809;47.418;19.080;2022-12-07T16:08:34;100393.84;;;2.53;99.78
63654;BME280;49809;47.418;19.080;2022-12-07T16:11:40;100400.25;;;2.44;100.00
63654;BME280;49809;47.418;19.080;2022-12-07T16:14:45;100392.78;;;2.34;100.00
63654;BME280;49809;47.418;19.080;2022-12-07T16:17:51;100403.19;;;2.28;100.00
63654;BME280;49809;47.418;19.080;2022-12-07T16:20:54;100400.72;;;2.06;100.00
63654;BME280;49809;47.418;19.080;2022-12-07T16:24:00;100396.41;;;1.92;100.00
63654;BME280;49809;47.418;19.080;2022-12-07T16:27:20;100397.69;;;1.75;100.00
63654;BME280;49809;47.418;19.080;2022-12-07T16:30:42;100400.41;;;1.60;100.00
63654;BME280;49809;47.418;19.080;2022-12-07T16:34:10;100402.75;;;1.49;100.00
63654;BME280;49809;47.418;19.080;2022-12-07T16:37:41;100398.62;;;1.33;100.00
63654;BME280;49809;47.418;19.080;2022-12-07T16:41:18;100402.53;;;1.22;100.00
63654;BME280;49809;47.418;19.080;2022-12-07T16:56:23;100408.75;;;0.79;100.00
63654;BME280;49809;47.418;19.080;2022-12-07T17:07:38;100413.50;;;0.39;100.00
63654;BME280;49809;47.418;19.080;2022-12-07T17:11:36;100412.53;;;0.26;100.00
63654;BME280;49809;47.418;19.080;2022-12-07T17:15:18;100419.00;;;0.15;100.00
63654;BME280;49809;47.418;19.080;2022-12-07T17:19:18;100420.09;;;0.06;100.00
63654;BME280;49809;47.418;19.080;2022-12-07T17:22:59;100427.72;;;-0.07;100.00
63654;BME280;49809;47.418;19.080;2022-12-07T17:34:32;100429.12;;;-0.19;100.00
63654;BME280;49809;47.418;19.080;2022-12-07T17:38:22;100433.87;;;-0.37;100.00
63654;BME280;49809;47.418;19.080;2022-12-07T17:49:37;100432.41;;;-0.55;100.00
63654;BME280;49809;47.418;19.080;2022-12-07T17:57:14;100430.22;;;-0.66;100.00
63654;BME280;49809;47.418;19.080;2022-12-07T18:05:09;100455.81;;;-0.77;100.00
63654;BME280;49809;47.418;19.080;2022-12-07T18:08:50;100448.91;;;-0.85;100.00
63654;BME280;49809;47.418;19.080;2022-12-07T18:16:19;100442.50;;;-0.97;100.00
63654;BME280;49809;47.418;19.080;2022-12-07T18:20:24;100448.03;;;-1.00;100.00
63654;BME280;49809;47.418;19.080;2022-12-07T18:24:14;100443.22;;;-1.11;100.00
63654;BME280;49809;47.418;19.080;2022-12-07T18:28:01;100445.72;;;-1.18;100.00
63654;BME280;49809;47.418;19.080;2022-12-07T18:31:56;100441.66;;;-1.20;100.00
63654;BME280;49809;47.418;19.080;2022-12-07T18:35:45;100445.41;;;-1.23;100.00
63654;BME280;49809;47.418;19.080;2022-12-07T18:39:29;100444.97;;;-1.35;100.00
63654;BME280;49809;47.418;19.080;2022-12-07T18:42:51;100444.75;;;-1.25;100.00
63654;BME280;49809;47.418;19.080;2022-12-07T18:46:28;100440.37;;;-1.24;100.00
63654;BME280;49809;47.418;19.080;2022-12-07T18:50:23;100436.56;;;-1.37;100.00
63654;BME280;49809;47.418;19.080;2022-12-07T18:53:49;100443.19;;;-1.34;100.00
63654;BME280;49809;47.418;19.080;2022-12-07T18:57:41;100448.75;;;-1.37;100.00
63654;BME280;49809;47.418;19.080;2022-12-07T19:01:18;100447.63;;;-1.43;100.00
63654;BME280;49809;47.418;19.080;2022-12-07T19:05:00;100453.47;;;-1.41;100.00
63654;BME280;49809;47.418;19.080;2022-12-07T19:08:33;100459.84;;;-1.51;100.00
63654;BME280;49809;47.418;19.080;2022-12-07T19:12:03;100461.66;;;-1.60;100.00
63654;BME280;49809;47.418;19.080;2022-12-07T19:15:50;100460.97;;;-1.54;100.00
63654;BME280;49809;47.418;19.080;2022-12-07T19:19:35;100474.00;;;-1.62;100.00
63654;BME280;49809;47.418;19.080;2022-12-07T19:22:43;100468.94;;;-1.55;100.00
63654;BME280;49809;47.418;19.080;2022-12-07T19:26:24;100466.50;;;-1.57;100.00
63654;BME280;49809;47.418;19.080;2022-12-07T19:30:05;100463.97;;;-1.65;100.00
63654;BME280;49809;47.418;19.080;2022-12-07T19:33:33;100453.47;;;-1.80;100.00
63654;BME280;49809;47.418;19.080;2022-12-07T19:37:12;100461.06;;;-1.78;100.00
63654;BME280;49809;47.418;19.080;2022-12-07T19:41:10;100464.66;;;-1.87;100.00
63654;BME280;49809;47.418;19.080;2022-12-07T19:45:14;100460.44;;;-1.88;100.00
63654;BME280;49809;47.418;19.080;2022-12-07T19:48:50;100459.50;;;-1.95;100.00
63654;BME280;49809;47.418;19.080;2022-12-07T19:52:31;100463.72;;;-1.94;100.00
63654;BME280;49809;47.418;19.080;2022-12-07T19:56:07;100468.91;;;-1.94;100.00
63654;BME280;49809;47.418;19.080;2022-12-07T19:59:48;100471.44;;;-1.78;100.00
63654;BME280;49809;47.418;19.080;2022-12-07T20:07:28;100474.41;;;-1.97;100.00
63654;BME280;49809;47.418;19.080;2022-12-07T20:11:09;100470.22;;;-2.06;100.00
63654;BME280;49809;47.418;19.080;2022-12-07T20:15:05;100466.81;;;-2.07;100.00
63654;BME280;49809;47.418;19.080;2022-12-07T20:18:48;100478.97;;;-2.07;100.00
63654;BME280;49809;47.418;19.080;2022-12-07T20:22:35;100470.22;;;-2.06;100.00
63654;BME280;49809;47.418;19.080;2022-12-07T20:26:19;100476.88;;;-2.04;100.00
63654;BME280;49809;47.418;19.080;2022-12-07T20:34:05;100493.34;;;-1.89;100.00
63654;BME280;49809;47.418;19.080;2022-12-07T20:37:50;100492.25;;;-1.94;100.00
63654;BME280;49809;47.418;19.080;2022-12-07T20:41:29;100492.56;;;-1.97;100.00
63654;BME280;49809;47.418;19.080;2022-12-07T20:45:25;100486.94;;;-2.09;100.00
63654;BME280;49809;47.418;19.080;2022-12-07T20:49:13;100489.03;;;-2.12;100.00
63654;BME280;49809;47.418;19.080;2022-12-07T20:53:00;100495.84;;;-2.20;100.00
63654;BME280;49809;47.418;19.080;2022-12-07T20:56:37;100493.25;;;-2.20;100.00
63654;BME280;49809;47.418;19.080;2022-12-07T21:00:20;100498.94;;;-2.24;100.00
63654;BME280;49809;47.418;19.080;2022-12-07T21:11:39;100493.59;;;-2.31;100.00
63654;BME280;49809;47.418;19.080;2022-12-07T21:15:26;100488.75;;;-2.34;100.00
63654;BME280;49809;47.418;19.080;2022-12-07T21:23:01;100490.84;;;-2.29;100.00
63654;BME280;49809;47.418;19.080;2022-12-07T21:26:46;100492.78;;;-2.31;100.00
63654;BME280;49809;47.418;19.080;2022-12-07T21:30:29;100488.09;;;-2.28;100.00
63654;BME280;49809;47.418;19.080;2022-12-07T21:34:48;100496.16;;;-2.23;100.00
63654;BME280;49809;47.418;19.080;2022-12-07T21:38:27;100490.81;;;-2.13;100.00
63654;BME280;49809;47.418;19.080;2022-12-07T21:41:58;100498.13;;;-2.16;100.00
63654;BME280;49809;47.418;19.080;2022-12-07T21:45:36;100498.78;;;-2.14;100.00
63654;BME280;49809;47.418;19.080;2022-12-07T21:49:14;100507.19;;;-2.12;100.00
63654;BME280;49809;47.418;19.080;2022-12-07T21:52:53;100516.09;;;-2.07;100.00
63654;BME280;49809;47.418;19.080;2022-12-07T21:56:43;100501.81;;;-2.03;100.00
63654;BME280;49809;47.418;19.080;2022-12-07T22:00:23;100504.72;;;-1.98;100.00
63654;BME280;49809;47.418;19.080;2022-12-07T22:03:29;100498.41;;;-1.95;100.00
63654;BME280;49809;47.418;19.080;2022-12-07T22:06:37;100488.97;;;-1.88;100.00
63654;BME280;49809;47.418;19.080;2022-12-07T22:10:28;100497.38;;;-1.78;100.00
63654;BME280;49809;47.418;19.080;2022-12-07T22:13:56;100502.63;;;-1.86;100.00
63654;BME280;49809;47.418;19.080;2022-12-07T22:17:46;100494.66;;;-1.93;100.00
63654;BME280;49809;47.418;19.080;2022-12-07T22:21:17;100483.84;;;-2.04;100.00
63654;BME280;49809;47.418;19.080;2022-12-07T22:24:54;100496.50;;;-2.09;100.00
63654;BME280;49809;47.418;19.080;2022-12-07T22:28:35;100485.31;;;-2.10;100.00
63654;BME280;49809;47.418;19.080;2022-12-07T22:32:12;100478.69;;;-2.21;100.00
63654;BME280;49809;47.418;19.080;2022-12-07T22:35:52;100490.19;;;-2.23;100.00
63654;BME280;49809;47.418;19.080;2022-12-07T22:39:29;100485.81;;;-2.31;100.00
63654;BME280;49809;47.418;19.080;2022-12-07T22:43:06;100474.63;;;-2.31;100.00
63654;BME280;49809;47.418;19.080;2022-12-07T22:46:41;100487.94;;;-2.42;100.00
63654;BME280;49809;47.418;19.080;2022-12-07T22:50:07;100486.62;;;-2.46;100.00
63654;BME280;49809;47.418;19.080;2022-12-07T22:53:27;100484.84;;;-2.46;100.00
63654;BME280;49809;47.418;19.080;2022-12-07T22:56:59;100484.84;;;-2.46;100.00
63654;BME280;49809;47.418;19.080;2022-12-07T23:00:36;100485.19;;;-2.49;100.00
63654;BME280;49809;47.418;19.080;2022-12-07T23:04:11;100478.03;;;-2.47;100.00
63654;BME280;49809;47.418;19.080;2022-12-07T23:07:30;100495.56;;;-2.49;100.00
63654;BME280;49809;47.418;19.080;2022-12-07T23:11:15;100477.25;;;-2.47;100.00
63654;BME280;49809;47.418;19.080;2022-12-07T23:15:14;100479.84;;;-2.47;100.00
63654;BME280;49809;47.418;19.080;2022-12-07T23:18:36;100489.72;;;-2.43;100.00
63654;BME280;49809;47.418;19.080;2022-12-07T23:22:10;100478.03;;;-2.47;100.00
63654;BME280;49809;47.418;19.080;2022-12-07T23:25:41;100487.13;;;-2.43;100.00
63654;BME280;49809;47.418;19.080;2022-12-07T23:29:21;100487.94;;;-2.34;100.00
63654;BME280;49809;47.418;19.080;2022-12-07T23:33:00;100490.03;;;-2.30;100.00
63654;BME280;49809;47.418;19.080;2022-12-07T23:37:02;100496.50;;;-2.17;100.00
63654;BME280;49809;47.418;19.080;2022-12-07T23:40:47;100489.03;;;-2.04;100.00
63654;BME280;49809;47.418;19.080;2022-12-07T23:44:31;100487.91;;;-2.10;100.00
63654;BME280;49809;47.418;19.080;2022-12-07T23:48:12;100491.63;;;-2.04;100.00
63654;BME280;49809;47.418;19.080;2022-12-07T23:51:46;100483.50;;;-2.01;100.00
63654;BME280;49809;47.418;19.080;2022-12-07T23:55:24;100480.25;;;-1.95;100.00
63654;BME280;49809;47.418;19.080;2022-12-07T23:59:10;100479.59;;;-1.97;100.00
